Costa Romantica — IBCR — position and weather

sailwx.info

Track history (hours):
 
Tides and Currents Weather Stations Pressure Air Temp Water Temp Dewpoint Dewpoint Depression Visibility Wind Speed Wind Dir Waves Ship Positions

Costa Romantica

Last reported at 2019-Apr-25 08:49 UTC. Time now 2019-Apr-25 09:54 UTC.
Position N 35°04' E 129°07'.

Length 221 m; draft 7.8 m.

Type: Passenger vessel. MMSI: 247817000.

Date/timePositionNaut miles runAvg speedWind from/ knotsBaromVisibWave heightAir tempDewpointWater temp
2019-Apr-25 08:49N 35°04' E 129°07'3 8.9
2019-Apr-25 08:30N 35°06' E 129°04'1 2.3
2019-Apr-25 08:00N 35°07' E 129°03'0 0.0
2019-Apr-25 07:30N 35°07' E 129°03'0 0.0
2019-Apr-25 07:00N 35°07' E 129°03'0 0.0
2019-Apr-25 06:30N 35°07' E 129°03'0 0.0
2019-Apr-25 06:00N 35°07' E 129°03'0 0.0
2019-Apr-25 05:30N 35°07' E 129°03'0 0.0
2019-Apr-25 04:54N 35°07' E 129°03'0 0.0
2019-Apr-25 04:27N 35°07' E 129°03'0 0.0
2019-Apr-25 04:00N 35°07' E 129°03'0 0.0
2019-Apr-25 03:30N 35°07' E 129°03'0 0.0
2019-Apr-25 03:00N 35°07' E 129°03'0 0.0
2019-Apr-25 02:21N 35°07' E 129°03'0 0.0
2019-Apr-25 02:00N 35°07' E 129°03'0 0.0
2019-Apr-25 01:30N 35°07' E 129°03'0 0.0
2019-Apr-25 01:00N 35°07' E 129°03'0 0.0
2019-Apr-25 00:30N 35°07' E 129°03'0 0.0
2019-Apr-25 00:00N 35°07' E 129°03'3 5.3
2019-Apr-24 23:30N 35°05' E 129°06'  
2019-Apr-16 08:31N 35°04' E 129°17'116.9
2019-Apr-16 08:29N 35°04' E 129°16'814.4
2019-Apr-16 07:56N 35°05' E 129°07'4 7.3
2019-Apr-16 07:25N 35°07' E 129°03'0 0.0
2019-Apr-16 06:58N 35°07' E 129°03'0 0.0
2019-Apr-16 06:28N 35°07' E 129°03'0 0.0
2019-Apr-16 05:58N 35°07' E 129°03'0 0.0
2019-Apr-16 05:28N 35°07' E 129°03'0 0.0
2019-Apr-16 04:58N 35°07' E 129°03'0 0.0
2019-Apr-16 04:28N 35°07' E 129°03'0 0.0
2019-Apr-16 03:58N 35°07' E 129°03'0 0.0
2019-Apr-16 03:28N 35°07' E 129°03'0 0.0
2019-Apr-16 02:58N 35°07' E 129°03'0 0.0
2019-Apr-16 02:28N 35°07' E 129°03'0 0.0
2019-Apr-16 01:55N 35°07' E 129°03'0 0.0
2019-Apr-16 01:28N 35°07' E 129°03'0 0.0
2019-Apr-16 00:58N 35°07' E 129°03'0 0.0
2019-Apr-16 00:28N 35°07' E 129°03'0 0.0
2019-Apr-15 23:58N 35°07' E 129°03'0 0.0
2019-Apr-15 23:28N 35°07' E 129°03'0 0.0
2019-Apr-15 22:55N 35°07' E 129°03'0 0.0
2019-Apr-15 22:28N 35°07' E 129°03'0 0.0
2019-Apr-15 21:55N 35°07' E 129°03'0 0.0
2019-Apr-15 21:28N 35°07' E 129°03'0 0.2
2019-Apr-15 21:00N 35°07' E 129°03'4 7.4
2019-Apr-15 20:30N 35°05' E 129°07'  
Track history (hours):
 
Tides and Currents Weather Stations Pressure Air Temp Water Temp Dewpoint Dewpoint Depression Visibility Wind Speed Wind Dir Waves Ship Positions

Costa Romantica

Last reported at 2019-Apr-25 08:49 UTC. Time now 2019-Apr-25 09:54 UTC.
Position N 35°04' E 129°07'.

Length 221 m; draft 7.8 m.

Type: Passenger vessel. MMSI: 247817000.

Date/timePositionNaut miles runAvg speedWind from/ knotsBaromVisibWave heightAir tempDewpointWater temp
2019-Apr-25 08:49N 35°04' E 129°07'3 8.9
2019-Apr-25 08:30N 35°06' E 129°04'1 2.3
2019-Apr-25 08:00N 35°07' E 129°03'0 0.0
2019-Apr-25 07:30N 35°07' E 129°03'0 0.0
2019-Apr-25 07:00N 35°07' E 129°03'0 0.0
2019-Apr-25 06:30N 35°07' E 129°03'0 0.0
2019-Apr-25 06:00N 35°07' E 129°03'0 0.0
2019-Apr-25 05:30N 35°07' E 129°03'0 0.0
2019-Apr-25 04:54N 35°07' E 129°03'0 0.0
2019-Apr-25 04:27N 35°07' E 129°03'0 0.0
2019-Apr-25 04:00N 35°07' E 129°03'0 0.0
2019-Apr-25 03:30N 35°07' E 129°03'0 0.0
2019-Apr-25 03:00N 35°07' E 129°03'0 0.0
2019-Apr-25 02:21N 35°07' E 129°03'0 0.0
2019-Apr-25 02:00N 35°07' E 129°03'0 0.0
2019-Apr-25 01:30N 35°07' E 129°03'0 0.0
2019-Apr-25 01:00N 35°07' E 129°03'0 0.0
2019-Apr-25 00:30N 35°07' E 129°03'0 0.0
2019-Apr-25 00:00N 35°07' E 129°03'3 5.3
2019-Apr-24 23:30N 35°05' E 129°06'  
2019-Apr-16 08:31N 35°04' E 129°17'116.9
2019-Apr-16 08:29N 35°04' E 129°16'814.4
2019-Apr-16 07:56N 35°05' E 129°07'4 7.3
2019-Apr-16 07:25N 35°07' E 129°03'0 0.0
2019-Apr-16 06:58N 35°07' E 129°03'0 0.0
2019-Apr-16 06:28N 35°07' E 129°03'0 0.0
2019-Apr-16 05:58N 35°07' E 129°03'0 0.0
2019-Apr-16 05:28N 35°07' E 129°03'0 0.0
2019-Apr-16 04:58N 35°07' E 129°03'0 0.0
2019-Apr-16 04:28N 35°07' E 129°03'0 0.0
2019-Apr-16 03:58N 35°07' E 129°03'0 0.0
2019-Apr-16 03:28N 35°07' E 129°03'0 0.0
2019-Apr-16 02:58N 35°07' E 129°03'0 0.0
2019-Apr-16 02:28N 35°07' E 129°03'0 0.0
2019-Apr-16 01:55N 35°07' E 129°03'0 0.0
2019-Apr-16 01:28N 35°07' E 129°03'0 0.0
2019-Apr-16 00:58N 35°07' E 129°03'0 0.0
2019-Apr-16 00:28N 35°07' E 129°03'0 0.0
2019-Apr-15 23:58N 35°07' E 129°03'0 0.0
2019-Apr-15 23:28N 35°07' E 129°03'0 0.0
2019-Apr-15 22:55N 35°07' E 129°03'0 0.0
2019-Apr-15 22:28N 35°07' E 129°03'0 0.0
2019-Apr-15 21:55N 35°07' E 129°03'0 0.0
2019-Apr-15 21:28N 35°07' E 129°03'0 0.2
2019-Apr-15 21:00N 35°07' E 129°03'4 7.4
2019-Apr-15 20:30N 35°05' E 129°07'  

Dump ship's entire track history